Latest Coastal Weather Observations for Williamtown

IDN60701

Issued at 12:25 am EST Sunday 20 April 2014 (issued every 10 minutes, with the page automatically refreshed every 10 minutes)

About coastal observations | Map of coastal stations | Coastal observations for NSW | Marine services | Other Formats
Station Details ID: 061078 Name: WILLIAMTOWN RAAF Lat: -32.79 Lon: 151.84 Height: 9.0 m
Data from the previous 72 hours. | See also: Recent months at Williamtown
Date/Time
EST
Temp

°C
Wind Pressure Rain
since 9am
mm
Weather Cloud Vis
km
Sea
Height
m
Swell
Dir
 
Speed
knots
Gust
knots
hPa Trend Height
m
Period
s
Dir
20/12:00am 13.6 NW 5 6 1017.5 - 0.0 - Mostly clear 10 - - - -
 
Date/Time
EST
Temp

°C
Wind Pressure Rain
since 9am
mm
Weather Cloud Vis
km
Sea
Height
m
Swell
Dir
 
Speed
knots
Gust
knots
hPa Trend Height
m
Period
s
Dir
19/11:30pm 13.9 WNW 5 5 1017.5 - 0.0 - Partly cloudy 10 - - - -
19/11:00pm 14.2 NW 5 5 1017.5 - 0.0 - Partly cloudy 10 - - - -
19/10:30pm 15.0 WNW 4 5 1017.5 - 0.0 - - 10 - - - -
19/10:00pm 15.7 WNW 5 7 1017.7 - 0.0 - Partly cloudy 10 - - - -
19/09:30pm 16.1 W 4 5 1017.6 - 0.0 - Partly cloudy 10 - - - -
19/09:00pm 17.2 SSW 5 6 1017.4 - 0.0 - Mostly cloudy 10 - - - -
19/08:30pm 17.6 S 6 8 1017.1 - 0.0 - Partly cloudy 10 - - - -
19/08:00pm 17.7 S 6 8 1016.9 - 0.0 - Partly cloudy 10 - - - -
19/07:30pm 17.9 S 7 8 1016.4 - 0.0 - Partly cloudy 10 - - - -
19/07:00pm 16.9 S 6 8 1016.1 - 0.0 - Partly cloudy 10 - - - -
19/06:30pm 17.2 S 6 8 1015.7 - 0.0 - - 10 - - - -
19/06:00pm 17.6 S 6 7 1015.5 - 0.0 - - 10 - - - -
19/05:30pm 18.5 S 7 9 1015.0 - 0.0 - - 10 - - - -
19/05:00pm 19.6 S 10 14 1014.6 - 0.0 - - 10 - - - -
19/04:30pm 20.4 SSE 10 13 1014.2 - 0.0 - Partly cloudy 10 - - - -
19/04:00pm 21.0 S 11 14 1014.1 - 0.0 - Partly cloudy 10 - - - -
19/03:30pm 21.3 SSE 12 15 1013.9 - 0.0 - Partly cloudy 10 - - - -
19/03:00pm 21.1 SSE 11 14 1013.9 - 0.0 - Partly cloudy 10 - - - -
19/02:30pm 22.2 SSE 8 12 1014.0 - 0.0 - Partly cloudy 10 - - - -
19/02:00pm 21.8 S 9 12 1014.0 - 0.0 - Partly cloudy 10 - - - -
19/01:30pm 21.3 SSE 9 13 1014.2 - 0.0 - Partly cloudy 10 - - - -
19/01:00pm 21.5 S 8 11 1014.6 - 0.0 - Partly cloudy 10 - - - -
19/12:30pm 21.3 S 8 11 1014.9 - 0.0 - Partly cloudy 10 - - - -
19/12:00pm 21.8 SSE 7 9 1015.3 - 0.0 - Cloudy 10 - - - -
19/11:30am 21.5 S 7 11 1015.5 - 0.0 - Partly cloudy 10 - - - -
19/11:00am 22.2 S 8 11 1016.0 - 0.0 - Partly cloudy 10 - - - -
19/10:30am 22.2 WNW 8 11 1016.4 - 0.0 - Partly cloudy 10 - - - -
19/10:00am 21.7 W 7 10 1016.6 - 0.0 - - 10 - - - -
19/09:30am 21.1 WSW 8 11 1016.5 - 0.0 - - 10 - - - -
19/09:00am 20.0 W 7 9 1016.5 - 0.0 - - 10 - - - -
19/08:30am 19.2 WNW 9 11 1016.4 - 0.0 - - 10 - - - -
19/08:00am 17.7 W 9 10 1016.2 - 0.0 - - 10 - - - -
19/07:30am 16.3 WNW 8 9 1016.1 - 0.0 - - 10 - - - -
19/07:00am 14.4 WNW 7 8 1015.8 - 0.0 - - 10 - - - -
19/06:30am 13.3 WNW 8 9 1015.4 - 0.0 - - 10 - - - -
19/06:00am 13.0 NW 8 9 1015.2 - 0.0 - - 10 - - - -
19/05:30am 13.3 NW 8 8 1015.0 - 0.0 - - 10 - - - -
19/05:00am 12.7 NW 6 7 1014.9 - 0.0 - - 10 - - - -
19/04:30am 13.0 WNW 7 7 1014.7 - 0.0 - - 10 - - - -
19/04:00am 13.5 NW 7 8 1014.5 - 0.0 - - 10 - - - -
19/03:30am 13.4 WNW 6 8 1014.4 - 0.0 - - 10 - - - -
19/03:00am 12.4 W 4 5 1014.2 - 0.0 - - 10 - - - -
19/02:30am 13.6 W 5 6 1014.3 - 0.0 - - 10 - - - -
19/02:00am 13.9 WSW 5 6 1014.3 - 0.0 - - 10 - - - -
19/01:30am 14.7 W 6 8 1014.2 - 0.0 - - 10 - - - -
19/01:00am 15.3 WNW 9 11 1014.3 - 0.0 - - 10 - - - -
19/12:30am 15.0 NW 8 10 1014.1 - 0.0 - Partly cloudy 10 - - - -
19/12:00am 14.9 WNW 9 10 1014.3 - 0.0 - Mostly clear 10 - - - -
 
Date/Time
EST
Temp

°C
Wind Pressure Rain
since 9am
mm
Weather Cloud Vis
km
Sea
Height
m
Swell
Dir
 
Speed
knots
Gust
knots
hPa Trend Height
m
Period
s
Dir
18/11:30pm 15.4 WNW 9 10 1014.4 - 0.0 - - 10 - - - -
18/11:00pm 15.5 WNW 7 8 1014.6 - 0.0 - - 10 - - - -
18/10:30pm 15.9 WNW 6 7 1014.6 - 0.0 - - 10 - - - -
18/10:00pm 16.8 NW 10 11 1014.7 - 0.0 - Partly cloudy 10 - - - -
18/09:30pm 17.7 NW 7 8 1014.7 - 0.0 - Partly cloudy 10 - - - -
18/09:00pm 18.2 WNW 10 11 1014.6 - 0.0 - Partly cloudy 10 - - - -
18/08:30pm 18.3 WNW 9 10 1014.3 - 0.0 - Cloudy 10 - - - -
18/08:00pm 18.5 W 8 10 1014.0 - 0.0 - Cloudy 10 - - - -
18/07:30pm 18.3 NNW 6 8 1013.5 - 0.0 - Cloudy 10 - - - -
18/07:00pm 18.4 N 5 6 1013.2 - 0.0 - Partly cloudy 10 - - - -
18/06:30pm 17.4 N 5 6 1013.0 - 0.0 - - 10 - - - -
18/06:00pm 18.0 N 5 6 1012.9 - 0.0 - - 10 - - - -
18/05:30pm 20.7 N 5 7 1012.9 - 0.0 - - 10 - - - -
18/05:00pm 22.3 NW 7 9 1012.8 - 0.0 - - 10 - - - -
18/04:30pm 23.5 NW 9 12 1012.6 - 0.0 - - 10 - - - -
18/04:00pm 24.0 NW 10 15 1012.5 - 0.0 - - 10 - - - -
18/03:30pm 24.8 WNW 10 14 1012.5 - 0.0 - - 10 - - - -
18/03:00pm 24.5 WNW 11 17 1012.5 - 0.0 - - 10 - - - -
18/02:30pm 24.2 NW 13 19 1012.6 - 0.0 - - 10 - - - -
18/02:00pm 24.2 NW 12 19 1012.9 - 0.0 - - 10 - - - -
18/01:30pm 24.4 WNW 14 18 1013.2 - 0.0 - - 10 - - - -
18/01:00pm 23.8 WNW 12 17 1013.7 - 0.0 - - 10 - - - -
18/12:30pm 23.4 WNW 14 18 1014.2 - 0.0 - - 10 - - - -
18/12:00pm 23.3 WNW 15 19 1014.7 - 0.0 - - 10 - - - -
18/11:30am 22.6 WNW 14 19 1015.2 - 0.0 - - 10 - - - -
18/11:00am 21.8 WNW 14 17 1015.6 - 0.0 - - 10 - - - -
18/10:30am 20.7 WNW 14 18 1016.1 - 0.0 - - 10 - - - -
18/10:00am 20.1 WNW 12 16 1016.4 - 0.0 - - 10 - - - -
18/09:30am 19.2 WNW 12 16 1016.8 - 0.0 - - 10 - - - -
18/09:00am 17.8 WNW 12 17 1017.1 - 0.0 - - 10 - - - -
18/08:30am 16.8 WNW 12 16 1017.2 - 0.0 - - 10 - - - -
18/08:00am 15.8 WNW 15 19 1017.2 - 0.0 - - 10 - - - -
18/07:30am 14.7 WNW 13 17 1017.2 - 0.0 - - 10 - - - -
18/07:00am 14.0 WNW 10 14 1017.1 - 0.0 - - 10 - - - -
18/06:30am 13.2 WNW 10 14 1016.9 - 0.0 - - 10 - - - -
18/06:00am 13.3 WNW 9 12 1016.8 - 0.0 - - 10 - - - -
18/05:30am 13.4 WNW 9 12 1016.9 - 0.0 - - 10 - - - -
18/05:00am 13.6 WNW 9 11 1016.8 - 0.0 - - 10 - - - -
18/04:30am 13.7 WNW 11 14 1016.8 - 0.0 - - 10 - - - -
18/04:00am 13.8 WNW 9 10 1016.8 - 0.0 - - 10 - - - -
18/03:30am 13.7 WNW 9 11 1016.8 - 0.0 - - 10 - - - -
18/03:00am 14.0 WNW 9 10 1016.9 - 0.0 - - 10 - - - -
18/02:30am 14.3 WNW 9 11 1017.0 - 0.0 - - 10 - - - -
18/02:00am 14.6 WNW 9 11 1017.3 - 0.0 - - 10 - - - -
18/01:30am 14.7 WNW 9 12 1017.6 - 0.0 - - 10 - - - -
18/01:00am 14.8 WNW 9 12 1017.8 - 0.0 - Partly cloudy 10 - - - -
18/12:30am 14.8 WNW 9 11 1018.0 - 0.0 - - 10 - - - -
18/12:00am 14.7 NW 8 9 1018.2 - 0.0 - - 10 - - - -
 
Date/Time
EST
Temp

°C
Wind Pressure Rain
since 9am
mm
Weather Cloud Vis
km
Sea
Height
m
Swell
Dir
 
Speed
knots
Gust
knots
hPa Trend Height
m
Period
s
Dir
17/11:30pm 14.8 NW 8 9 1018.3 - 0.0 - - 10 - - - -
17/11:00pm 15.4 WNW 6 7 1018.6 - 0.0 - Partly cloudy 10 - - - -
17/10:30pm 15.1 WNW 6 7 1018.7 - 0.0 - Partly cloudy 10 - - - -
17/10:00pm 15.6 NW 6 7 1018.8 - 0.0 - - 10 - - - -
17/09:30pm 16.3 WNW 6 7 1019.0 - 0.0 - - 10 - - - -
17/09:00pm 17.4 S 5 8 1018.9 - 0.0 - Partly cloudy 10 - - - -
17/08:30pm 17.7 SW 4 6 1018.9 - 0.0 - Mostly clear 10 - - - -
17/08:00pm 17.9 W 5 5 1018.7 - 0.0 - Mostly clear 10 - - - -
17/07:30pm 18.2 SSW 4 5 1018.6 - 0.0 - Mostly clear 10 - - - -
17/07:00pm 18.1 SW 6 7 1018.6 - 0.0 - Mostly clear 10 - - - -
17/06:30pm 17.8 SSW 4 5 1018.3 - 0.0 - Mostly clear 10 - - - -
17/06:00pm 18.2 S 5 7 1018.1 - 0.0 - Partly cloudy 10 - - - -
17/05:30pm 18.7 S 8 11 1017.9 - 0.0 - Mostly clear 10 - - - -
17/05:00pm 19.5 S 10 15 1017.9 - 0.0 - Mostly clear 10 - - - -
17/04:30pm 20.0 S 12 15 1017.7 - 0.0 - Mostly clear 10 - - - -
17/04:00pm 20.2 S 14 19 1017.6 - 0.0 - Mostly clear 10 - - - -
17/03:30pm 20.9 S 16 21 1017.5 - 0.0 - Mostly clear 10 - - - -
17/03:00pm 20.8 S 15 21 1017.5 R 0.0 Haze Mostly clear 30 - - - -
17/02:30pm 21.8 S 13 18 1017.4 - 0.0 - Mostly clear 10 - - - -
17/02:00pm 22.4 S 16 22 1017.6 - 0.0 - Partly cloudy 10 - - - -
17/01:30pm 22.6 S 15 20 1017.6 - 0.0 - Mostly clear 10 - - - -
17/01:00pm 22.1 S 16 20 1017.8 - 0.0 - Mostly clear 10 - - - -
17/12:30pm 22.1 S 16 18 1018.1 - 0.0 - Partly cloudy 10 - - - -
17/12:00pm 22.2 S 13 18 1018.5 F 0.0 Haze Partly cloudy 25 - - - -
17/11:30am 22.1 SSW 11 16 1019.0 - 0.0 - Partly cloudy 10 - - - -
17/11:00am 21.8 SW 11 14 1019.2 - 0.0 - Mostly clear 10 - - - -
17/10:30am 21.5 SW 12 17 1019.2 - 0.0 - Mostly clear 10 - - - -
17/10:00am 20.4 SW 11 15 1019.3 - 0.0 - Mostly clear 10 - - - -
17/09:30am 19.7 W 7 10 1019.2 - 0.0 - Mostly clear 10 - - - -
17/09:00am 18.7 W 9 14 1019.4 F 0.8 Distant precip. Mostly clear 30 - - - -
17/08:30am 17.5 WNW 9 11 1019.2 - 0.8 - Mostly clear 10 - - - -
17/08:00am 16.2 WNW 10 14 1019.0 - 0.8 - Mostly clear 10 - - - -
17/07:30am 15.0 WNW 9 12 1018.9 - 0.8 - Mostly clear 10 - - - -
17/07:00am 13.8 WNW 11 14 1018.5 - 0.8 - Mostly clear 10 - - - -
17/06:30am 13.3 WNW 11 15 1018.2 - 0.8 - Mostly clear 10 - - - -
17/06:00am 13.2 WNW 11 14 1018.1 F 0.8 Distant precip. Mostly clear 30 - - - -
17/05:30am 13.5 WNW 10 12 1018.0 - 0.8 - Partly cloudy 10 - - - -
17/05:00am 13.1 WNW 9 10 1017.7 - 0.8 - - 10 - - - -
17/04:30am 13.2 NW 7 8 1017.5 - 0.8 - Partly cloudy 10 - - - -
17/04:00am 13.0 CALM 0 0 1017.5 - 0.8 - Partly cloudy 10 - - - -
17/03:30am 13.1 WNW 7 8 1017.4 - 0.8 - Partly cloudy 10 - - - -
17/03:00am 13.1 WNW 7 8 1017.3 - 0.8 - - 10 - - - -
17/02:30am 13.3 WNW 7 9 1017.1 - 0.4 - - 10 - - - -
17/02:00am 13.7 WNW 8 9 1017.3 - 0.4 - - 10 - - - -
17/01:30am 13.9 WNW 8 9 1017.5 - 0.4 - - 10 - - - -
17/01:00am 14.4 WNW 9 10 1017.9 - 0.4 - Partly cloudy 10 - - - -
17/12:30am 14.8 WNW 7 9 1018.1 - 0.4 - Cloudy 10 - - - -

Other Formats:

Comma delimited format used in spreadsheet applications
http://www.bom.gov.au/fwo/IDN60701/IDN60701.94776.axf

JavaScript Object Notation format (JSON) in row-major order
http://www.bom.gov.au/fwo/IDN60701/IDN60701.94776.json